LTAD/ANK METAR and TAF weather

Enter ICAO airport designator
Station Type Date Time Source
LTAD METAR 2019/08/22 08:50 UTC NOAA

LTAD 220850Z VRB04KT 9999 SCT040 SCT100 26/14 Q1018 NOSIG RMK RWY29 36005KT 290V040


Station Type Date Time Source
LTAD Decoded METAR 2019/08/22 08:50 UTC NOAA

Station name not available
Aug 22, 2019 - 04:50 AM EDT / 2019.08.22 0850 UTC
Wind: Variable at 5 MPH (4 KT):0
Visibility: greater than 7 mile(s):0
Sky conditions: partly cloudy
Temperature: 78 F (26 C)
Dew Point: 57 F (14 C)
Relative Humidity: 47%
Pressure (altimeter): 30.06 in. Hg (1018 hPa)
ob: LTAD 220850Z VRB04KT 9999 SCT040 SCT100 26/14 Q1018 NOSIG RMK RWY29 36005KT 290V040
cycle: 9

Station Type Date Time Source
LTAD TAF UTC NOAA

Error!

Example: see airport list